createdAt,value
2022-08-26T00:00:55.371Z,3.38
2022-08-26T00:03:41.046Z,5.78
2022-08-26T00:06:25.232Z,3.75
2022-08-26T00:09:09.851Z,3.63
2022-08-26T00:11:54.733Z,3.38
2022-08-26T00:14:38.842Z,3.63
2022-08-26T00:17:22.861Z,3.60
2022-08-26T00:20:11.355Z,3.25
2022-08-26T00:22:55.755Z,2.58
2022-08-26T00:25:42.618Z,3.05
2022-08-26T00:28:27.026Z,2.83
2022-08-26T00:31:11.303Z,2.67
2022-08-26T00:33:55.764Z,3.75
2022-08-26T00:36:41.564Z,3.53
2022-08-26T00:39:25.745Z,2.80
2022-08-26T00:42:09.949Z,3.33
2022-08-26T00:44:55.021Z,2.90
2022-08-26T00:47:45.210Z,3.58
2022-08-26T00:50:34.676Z,3.00
2022-08-26T00:53:27.865Z,3.58
2022-08-26T00:56:21.768Z,4.53
2022-08-26T00:59:09.704Z,4.25
2022-08-26T01:01:54.300Z,3.85
2022-08-26T01:04:40.392Z,4.93
2022-08-26T01:07:27.631Z,2.92
2022-08-26T01:10:19.298Z,3.40
2022-08-26T01:13:07.224Z,3.40
2022-08-26T01:15:54.815Z,4.25
2022-08-26T01:18:41.114Z,3.33
2022-08-26T01:21:30.615Z,4.15
2022-08-26T01:24:16.430Z,3.75
2022-08-26T01:27:05.257Z,2.92
2022-08-26T01:29:52.005Z,4.07
2022-08-26T01:32:38.952Z,3.10
2022-08-26T01:35:23.537Z,2.45
2022-08-26T01:38:07.925Z,3.42
2022-08-26T01:40:54.499Z,4.18
2022-08-26T01:43:41.024Z,3.13
2022-08-26T01:46:26.183Z,3.58
2022-08-26T01:49:11.992Z,3.05
2022-08-26T01:51:58.493Z,2.75
2022-08-26T01:54:42.712Z,3.03
2022-08-26T01:57:32.545Z,2.45
2022-08-26T02:00:18.886Z,2.65
2022-08-26T02:03:19.229Z,2.72
2022-08-26T02:06:09.188Z,2.38
2022-08-26T02:08:56.965Z,2.20
2022-08-26T02:11:41.090Z,2.78
2022-08-26T02:14:31.365Z,1.92
2022-08-26T02:17:16.087Z,2.70
2022-08-26T02:20:00.584Z,2.67
2022-08-26T02:22:46.124Z,2.47
2022-08-26T02:25:35.349Z,2.45
2022-08-26T02:28:19.897Z,2.10
2022-08-26T02:31:05.804Z,3.22
2022-08-26T02:33:52.175Z,2.22
2022-08-26T02:36:36.305Z,2.40
2022-08-26T02:39:22.377Z,2.28
2022-08-26T02:42:07.012Z,2.35
2022-08-26T02:44:51.347Z,2.05
2022-08-26T02:47:37.575Z,2.53
2022-08-26T02:50:22.434Z,2.42
2022-08-26T02:53:06.762Z,2.72
2022-08-26T02:55:50.976Z,2.53
2022-08-26T02:58:35.093Z,1.92
2022-08-26T03:01:25.238Z,2.88
2022-08-26T03:04:14.012Z,2.38
2022-08-26T03:06:59.745Z,2.60
2022-08-26T03:09:43.836Z,3.33
2022-08-26T03:12:28.994Z,3.22
2022-08-26T03:15:17.789Z,2.30
2022-08-26T03:18:02.719Z,3.22
2022-08-26T03:20:48.281Z,3.08
2022-08-26T03:23:32.930Z,2.85
2022-08-26T03:26:17.712Z,2.67
2022-08-26T03:29:19.411Z,2.60
2022-08-26T03:32:04.284Z,2.90
2022-08-26T03:34:48.536Z,2.38
2022-08-26T03:37:34.878Z,2.45
2022-08-26T03:40:20.293Z,2.28
2022-08-26T03:43:07.209Z,2.22
2022-08-26T03:45:54.050Z,2.00
2022-08-26T03:48:39.350Z,2.60
2022-08-26T03:51:23.610Z,2.25
2022-08-26T03:54:09.905Z,2.88
2022-08-26T03:56:54.295Z,1.92
2022-08-26T03:59:38.361Z,2.50
2022-08-26T04:02:25.999Z,1.90
2022-08-26T04:05:10.542Z,2.47
2022-08-26T04:07:54.725Z,2.65
2022-08-26T04:10:40.275Z,2.22
2022-08-26T04:13:24.369Z,2.17
2022-08-26T04:16:10.149Z,2.78
2022-08-26T04:18:54.664Z,3.00
2022-08-26T04:21:38.973Z,2.42
2022-08-26T04:24:26.136Z,2.75
2022-08-26T04:27:13.583Z,2.55
2022-08-26T04:29:57.781Z,2.55
2022-08-26T04:32:41.853Z,2.78
2022-08-26T04:35:26.326Z,2.92
2022-08-26T04:38:10.582Z,3.00
2022-08-26T04:40:54.765Z,2.55
2022-08-26T04:43:41.931Z,2.65
2022-08-26T04:46:26.606Z,2.85
2022-08-26T04:49:10.966Z,2.92
2022-08-26T04:51:55.339Z,2.67
2022-08-26T04:54:41.993Z,3.42
2022-08-26T04:57:26.231Z,3.10
2022-08-26T05:00:13.521Z,3.03
2022-08-26T05:02:57.666Z,3.92
2022-08-26T05:05:43.851Z,3.15
2022-08-26T05:08:28.107Z,3.55
2022-08-26T05:11:12.392Z,3.53
2022-08-26T05:13:58.193Z,3.10
2022-08-26T05:16:47.687Z,4.88
2022-08-26T05:19:32.707Z,3.70
2022-08-26T05:22:17.439Z,5.07
2022-08-26T05:25:02.683Z,3.03
2022-08-26T05:27:47.136Z,2.95
2022-08-26T05:30:32.588Z,2.85
2022-08-26T05:33:19.893Z,3.08
2022-08-26T05:36:09.434Z,3.25
2022-08-26T05:38:56.005Z,2.70
2022-08-26T05:41:42.550Z,2.55
2022-08-26T05:44:29.012Z,3.20
2022-08-26T05:47:20.187Z,2.92
2022-08-26T05:50:07.281Z,3.50
2022-08-26T05:52:51.710Z,4.45
2022-08-26T05:55:36.087Z,3.10
2022-08-26T05:58:24.207Z,3.13
2022-08-26T06:01:10.544Z,3.10
2022-08-26T06:04:00.710Z,3.30
2022-08-26T06:06:47.451Z,3.28
2022-08-26T06:09:31.644Z,3.53
2022-08-26T06:12:16.769Z,3.35
2022-08-26T06:15:02.602Z,3.45
2022-08-26T06:17:48.532Z,3.30
2022-08-26T06:20:32.925Z,3.42
2022-08-26T06:23:37.593Z,4.40
2022-08-26T06:26:24.636Z,3.60
2022-08-26T06:29:09.505Z,3.58
2022-08-26T06:31:56.275Z,4.03
2022-08-26T06:34:40.540Z,3.33
2022-08-26T06:37:25.709Z,3.50
2022-08-26T06:40:12.555Z,4.15
2022-08-26T06:42:56.689Z,3.60
2022-08-26T06:45:41.217Z,3.88
2022-08-26T06:48:25.498Z,3.50
2022-08-26T06:51:14.491Z,3.53
2022-08-26T06:54:00.767Z,3.35
2022-08-26T06:56:46.287Z,3.67
2022-08-26T06:59:32.496Z,3.30
2022-08-26T07:02:16.747Z,3.42
2022-08-26T07:05:02.040Z,3.63
2022-08-26T07:07:48.287Z,3.67
2022-08-26T07:10:32.864Z,4.35
2022-08-26T07:13:18.533Z,3.92
2022-08-26T07:16:17.827Z,3.65
2022-08-26T07:19:03.495Z,3.80
2022-08-26T07:21:55.584Z,3.80
2022-08-26T07:24:42.577Z,3.28
2022-08-26T07:27:27.420Z,3.47
2022-08-26T07:30:15.034Z,3.10
2022-08-26T07:32:59.560Z,3.47
2022-08-26T07:35:44.631Z,3.22
2022-08-26T07:38:28.880Z,3.60
2022-08-26T07:41:17.727Z,4.28
2022-08-26T07:45:01.951Z,3.92
2022-08-26T07:47:49.067Z,3.53
2022-08-26T07:50:48.983Z,4.10
2022-08-26T07:53:35.918Z,4.60
2022-08-26T07:56:20.212Z,4.68
2022-08-26T07:59:13.808Z,3.67
2022-08-26T08:02:00.870Z,4.50
2022-08-26T08:04:46.636Z,3.90
2022-08-26T08:07:44.620Z,4.18
2022-08-26T08:10:30.129Z,4.25
2022-08-26T08:14:14.519Z,3.00
2022-08-26T08:16:58.878Z,3.70
2022-08-26T08:19:43.225Z,3.40
2022-08-26T08:22:29.039Z,3.78
2022-08-26T08:25:14.137Z,3.33
2022-08-26T08:27:58.220Z,3.17
2022-08-26T08:30:43.019Z,3.53
2022-08-26T08:33:30.366Z,3.85
2022-08-26T08:36:18.594Z,3.75
2022-08-26T08:39:06.360Z,3.25
2022-08-26T08:42:04.372Z,3.70
2022-08-26T08:44:52.592Z,3.28
2022-08-26T08:47:42.226Z,3.08
2022-08-26T08:50:31.553Z,3.55
2022-08-26T08:53:19.082Z,4.68
2022-08-26T08:56:13.566Z,3.45
2022-08-26T08:59:06.394Z,3.65
2022-08-26T09:02:02.383Z,2.85
2022-08-26T09:05:04.766Z,3.33
2022-08-26T09:07:53.576Z,3.60
2022-08-26T09:10:42.301Z,3.45
2022-08-26T09:13:31.841Z,3.33
2022-08-26T09:16:21.670Z,3.08
2022-08-26T09:19:19.691Z,2.70
2022-08-26T09:22:08.655Z,3.80
2022-08-26T09:24:53.721Z,3.30
2022-08-26T09:27:40.588Z,3.55
2022-08-26T09:30:29.700Z,3.40
2022-08-26T09:33:18.330Z,3.88
2022-08-26T09:36:26.438Z,2.97
2022-08-26T09:39:29.872Z,3.00
2022-08-26T09:42:22.499Z,3.05
2022-08-26T09:45:10.642Z,2.47
2022-08-26T09:48:01.332Z,3.30
2022-08-26T09:50:55.021Z,2.80
2022-08-26T09:53:53.718Z,2.58
2022-08-26T09:56:39.655Z,3.55
2022-08-26T09:59:31.833Z,3.03
2022-08-26T10:02:36.488Z,2.63
2022-08-26T10:05:31.703Z,2.53
2022-08-26T10:08:26.248Z,2.92
2022-08-26T10:11:19.732Z,3.10
2022-08-26T10:14:17.173Z,2.58
2022-08-26T10:17:06.998Z,3.08
2022-08-26T10:19:57.997Z,2.58
2022-08-26T10:22:49.618Z,2.95
2022-08-26T10:25:38.923Z,2.63
2022-08-26T10:28:35.090Z,3.10
2022-08-26T10:31:30.599Z,2.97
2022-08-26T10:34:24.436Z,2.78
2022-08-26T10:37:16.278Z,2.47
2022-08-26T10:40:09.521Z,2.95
2022-08-26T10:42:59.665Z,2.75
2022-08-26T10:45:49.045Z,3.33
2022-08-26T10:48:44.657Z,2.72
2022-08-26T10:51:35.734Z,3.05
2022-08-26T10:54:32.990Z,4.05
2022-08-26T10:57:24.812Z,2.58
2022-08-26T11:00:32.645Z,2.58
2022-08-26T11:03:31.602Z,2.83
2022-08-26T11:06:24.991Z,2.88
2022-08-26T11:09:10.022Z,2.83
2022-08-26T11:11:54.068Z,2.60
2022-08-26T11:14:53.643Z,2.90
2022-08-26T11:17:58.404Z,2.58
2022-08-26T11:20:46.123Z,2.75
2022-08-26T11:23:50.430Z,2.53
2022-08-26T11:26:56.346Z,3.08
2022-08-26T11:30:04.929Z,2.85
2022-08-26T11:32:52.655Z,3.08
2022-08-26T11:35:50.896Z,2.60
2022-08-26T11:38:37.035Z,3.45
2022-08-26T11:41:29.281Z,2.90
2022-08-26T11:44:17.496Z,2.70
2022-08-26T11:47:03.429Z,3.00
2022-08-26T11:49:47.367Z,2.80
2022-08-26T11:52:31.258Z,3.00
2022-08-26T11:55:17.273Z,2.58
2022-08-26T11:58:05.081Z,2.80
2022-08-26T12:00:53.721Z,2.72
2022-08-26T12:03:42.917Z,3.33
2022-08-26T12:06:30.835Z,2.88
2022-08-26T12:09:21.928Z,3.05
2022-08-26T12:12:14.564Z,3.35
2022-08-26T12:15:15.505Z,2.60
2022-08-26T12:18:17.146Z,3.13
2022-08-26T12:21:13.179Z,3.25
2022-08-26T12:23:59.101Z,2.40
2022-08-26T12:26:43.120Z,3.13
2022-08-26T12:29:29.262Z,2.60
2022-08-26T12:32:15.496Z,3.17
2022-08-26T12:37:51.733Z,2.97
2022-08-26T12:40:40.753Z,3.38
2022-08-26T12:43:43.073Z,4.28
2022-08-26T12:46:30.410Z,2.75
2022-08-26T12:49:19.456Z,3.08
2022-08-26T12:52:03.798Z,3.28
2022-08-26T12:55:01.275Z,3.10
2022-08-26T12:57:45.366Z,2.80
2022-08-26T13:00:34.776Z,3.08
2022-08-26T13:03:43.644Z,3.47
2022-08-26T13:06:30.163Z,3.58
2022-08-26T13:09:31.566Z,2.97
2022-08-26T13:12:30.180Z,3.33
2022-08-26T13:15:14.167Z,3.67
2022-08-26T13:17:58.418Z,2.97
2022-08-26T13:20:45.067Z,2.97
2022-08-26T13:23:29.216Z,3.33
2022-08-26T13:26:13.283Z,3.42
2022-08-26T13:29:01.500Z,3.38
2022-08-26T13:31:47.316Z,3.45
2022-08-26T13:34:31.986Z,3.95
2022-08-26T13:37:16.086Z,3.40
2022-08-26T13:40:00.296Z,3.17
2022-08-26T13:42:49.847Z,3.40
2022-08-26T13:45:35.819Z,3.55
2022-08-26T13:48:22.887Z,3.40
2022-08-26T13:51:09.052Z,3.55
2022-08-26T13:53:54.099Z,3.00
2022-08-26T13:56:38.156Z,2.88
2022-08-26T13:59:22.427Z,4.03
2022-08-26T14:02:08.116Z,3.33
2022-08-26T14:04:55.465Z,3.20
2022-08-26T14:07:39.572Z,3.35
2022-08-26T14:10:23.637Z,3.55
2022-08-26T14:13:07.810Z,2.75
2022-08-26T14:15:53.042Z,2.85
2022-08-26T14:18:43.031Z,3.10
2022-08-26T14:21:31.284Z,3.60
2022-08-26T14:24:15.671Z,2.65
2022-08-26T14:26:59.951Z,3.40
2022-08-26T14:29:44.075Z,3.40
2022-08-26T14:32:29.710Z,3.80
2022-08-26T14:35:18.742Z,3.28
2022-08-26T14:38:02.732Z,3.90
2022-08-26T14:40:46.889Z,3.60
2022-08-26T14:43:31.451Z,3.40
2022-08-26T14:46:16.327Z,2.83
2022-08-26T14:49:03.577Z,4.80
2022-08-26T14:51:51.460Z,3.22
2022-08-26T14:54:35.478Z,3.05
2022-08-26T14:57:19.640Z,3.47
2022-08-26T15:00:04.040Z,3.00
2022-08-26T15:02:48.155Z,2.78
2022-08-26T15:05:32.693Z,2.45
2022-08-26T15:08:18.518Z,2.88
2022-08-26T15:11:02.721Z,3.63
2022-08-26T15:13:46.684Z,2.63
2022-08-26T15:16:31.045Z,2.92
2022-08-26T15:19:17.694Z,2.92
2022-08-26T15:22:03.002Z,3.10
2022-08-26T15:24:48.523Z,2.83
2022-08-26T15:27:37.877Z,2.97
2022-08-26T15:30:21.931Z,2.40
2022-08-26T15:33:06.153Z,2.97
2022-08-26T15:36:00.604Z,2.97
2022-08-26T15:38:44.694Z,3.15
2022-08-26T15:41:30.881Z,3.78
2022-08-26T15:44:20.059Z,3.15
2022-08-26T15:47:04.106Z,2.83
2022-08-26T15:49:48.567Z,3.25
2022-08-26T15:52:32.505Z,3.08
2022-08-26T15:55:16.398Z,3.05
2022-08-26T15:58:01.628Z,3.20
2022-08-26T16:00:46.136Z,2.83
2022-08-26T16:03:30.309Z,2.92
2022-08-26T16:06:15.613Z,3.03
2022-08-26T16:09:00.128Z,2.92
2022-08-26T16:11:44.189Z,3.30
2022-08-26T16:14:30.161Z,2.75
2022-08-26T16:17:14.320Z,2.83
2022-08-26T16:19:58.503Z,2.70
2022-08-26T16:22:42.519Z,2.95
2022-08-26T16:25:26.937Z,3.33
2022-08-26T16:28:11.633Z,3.03
2022-08-26T16:30:57.176Z,2.83
2022-08-26T16:33:41.498Z,4.68
2022-08-26T16:36:25.703Z,2.88
2022-08-26T16:39:10.833Z,3.15
2022-08-26T16:41:54.874Z,3.45
2022-08-26T16:44:45.562Z,3.53
2022-08-26T16:47:31.062Z,3.40
2022-08-26T16:50:15.844Z,4.88
2022-08-26T16:52:59.898Z,3.60
2022-08-26T16:55:46.731Z,3.28
2022-08-26T16:58:31.464Z,3.10
2022-08-26T17:01:15.778Z,3.17
2022-08-26T17:04:01.191Z,3.38
2022-08-26T17:06:45.066Z,3.15
2022-08-26T17:09:29.033Z,3.17
2022-08-26T17:12:13.260Z,3.25
2022-08-26T17:14:57.239Z,3.60
2022-08-26T17:17:41.820Z,3.35
2022-08-26T17:20:27.998Z,3.42
2022-08-26T17:23:12.051Z,3.47
2022-08-26T17:25:56.130Z,4.05
2022-08-26T17:28:40.429Z,4.18
2022-08-26T17:31:24.977Z,3.97
2022-08-26T17:34:09.198Z,3.05
2022-08-26T17:36:55.026Z,3.28
2022-08-26T17:39:42.750Z,3.33
2022-08-26T17:42:31.069Z,3.10
2022-08-26T17:45:16.413Z,3.78
2022-08-26T17:48:00.781Z,4.00
2022-08-26T17:50:49.530Z,4.22
2022-08-26T17:53:35.371Z,2.80
2022-08-26T17:56:23.966Z,3.40
2022-08-26T17:59:08.054Z,3.70
2022-08-26T18:01:54.118Z,3.33
2022-08-26T18:04:38.151Z,3.45
2022-08-26T18:07:22.107Z,2.75
2022-08-26T18:10:12.936Z,3.15
2022-08-26T18:12:57.335Z,3.08
2022-08-26T18:15:42.263Z,3.88
2022-08-26T18:18:26.462Z,3.83
2022-08-26T18:21:14.290Z,3.25
2022-08-26T18:23:58.697Z,3.53
2022-08-26T18:26:48.894Z,3.38
2022-08-26T18:29:32.879Z,3.50
2022-08-26T18:32:17.397Z,3.35
2022-08-26T18:35:01.430Z,3.78
2022-08-26T18:37:47.381Z,3.78
2022-08-26T18:40:31.722Z,3.30
2022-08-26T18:43:18.272Z,4.00
2022-08-26T18:46:04.101Z,3.58
2022-08-26T18:48:50.745Z,4.72
2022-08-26T18:51:36.877Z,4.85
2022-08-26T18:54:21.820Z,5.78
2022-08-26T18:57:06.319Z,5.53
2022-08-26T18:59:52.451Z,4.72
2022-08-26T19:02:36.700Z,4.20
2022-08-26T19:05:22.373Z,3.92
2022-08-26T19:08:06.387Z,4.55
2022-08-26T19:10:50.925Z,3.75
2022-08-26T19:13:35.735Z,3.55
2022-08-26T19:16:24.060Z,3.42
2022-08-26T19:19:08.207Z,3.80
2022-08-26T19:21:52.775Z,3.60
2022-08-26T19:24:36.865Z,4.47
2022-08-26T19:27:21.038Z,4.13
2022-08-26T19:30:05.548Z,5.43
2022-08-26T19:32:51.251Z,3.72
2022-08-26T19:35:36.309Z,3.47
2022-08-26T19:38:21.113Z,4.65
2022-08-26T19:41:05.217Z,4.57
2022-08-26T19:43:49.632Z,3.92
2022-08-26T19:46:36.073Z,3.92
2022-08-26T19:49:21.649Z,3.92
2022-08-26T19:52:07.016Z,3.50
2022-08-26T19:54:51.175Z,4.10
2022-08-26T19:57:36.167Z,3.55
2022-08-26T20:00:23.682Z,3.38
2022-08-26T20:03:08.719Z,3.65
2022-08-26T20:05:58.658Z,4.55
2022-08-26T20:08:44.239Z,4.28
2022-08-26T20:11:28.406Z,3.92
2022-08-26T20:14:12.453Z,4.25
2022-08-26T20:16:56.842Z,3.75
2022-08-26T20:19:58.705Z,3.65
2022-08-26T20:22:44.326Z,5.00
2022-08-26T20:25:28.568Z,3.83
2022-08-26T20:28:12.646Z,4.20
2022-08-26T20:30:57.658Z,4.15
2022-08-26T20:33:46.366Z,3.55
2022-08-26T20:36:31.268Z,4.40
2022-08-26T20:39:17.545Z,3.80
2022-08-26T20:42:01.599Z,3.70
2022-08-26T20:44:54.441Z,4.18
2022-08-26T20:47:40.206Z,4.05
2022-08-26T20:50:24.605Z,4.65
2022-08-26T20:53:09.177Z,3.95
2022-08-26T20:55:55.205Z,4.32
2022-08-26T20:58:40.069Z,4.07
2022-08-26T21:01:28.511Z,4.43
2022-08-26T21:04:14.787Z,4.88
2022-08-26T21:06:58.889Z,4.53
2022-08-26T21:09:44.542Z,4.30
2022-08-26T21:12:31.418Z,4.20
2022-08-26T21:15:16.555Z,5.25
2022-08-26T21:18:01.322Z,4.28
2022-08-26T21:20:45.412Z,3.60
2022-08-26T21:23:29.470Z,4.90
2022-08-26T21:26:15.244Z,4.35
2022-08-26T21:29:02.406Z,4.53
2022-08-26T21:31:46.963Z,4.80
2022-08-26T21:34:31.215Z,6.20
2022-08-26T21:37:16.383Z,4.68
2022-08-26T21:40:03.856Z,4.82
2022-08-26T21:42:48.501Z,5.05
2022-08-26T21:45:34.298Z,5.72
2022-08-26T21:48:18.387Z,4.15
2022-08-26T21:51:02.390Z,4.53
2022-08-26T21:53:46.474Z,5.07
2022-08-26T21:56:32.771Z,4.65
2022-08-26T21:59:19.220Z,4.65
2022-08-26T22:02:07.228Z,4.85
2022-08-26T22:04:51.267Z,4.95
2022-08-26T22:07:35.389Z,5.50
2022-08-26T22:10:19.481Z,4.43
2022-08-26T22:13:03.538Z,3.95
2022-08-26T22:15:48.689Z,4.60
2022-08-26T22:18:34.393Z,4.70
2022-08-26T22:21:20.999Z,4.45
2022-08-26T22:24:07.223Z,4.63
2022-08-26T22:26:51.741Z,5.78
2022-08-26T22:29:36.089Z,4.97
2022-08-26T22:32:20.075Z,5.05
2022-08-26T22:35:28.415Z,6.85
2022-08-26T22:38:11.239Z,5.20
2022-08-26T22:40:57.568Z,5.22
2022-08-26T22:43:42.043Z,4.70
2022-08-26T22:46:27.840Z,7.95
2022-08-26T22:49:15.879Z,5.15
2022-08-26T22:52:01.722Z,5.30
2022-08-26T22:54:45.773Z,4.70
2022-08-26T22:57:29.886Z,4.55
2022-08-26T23:00:14.855Z,5.75
2022-08-26T23:02:59.242Z,5.93
2022-08-26T23:05:44.869Z,4.90
2022-08-26T23:08:31.533Z,5.00
2022-08-26T23:11:16.396Z,5.47
2022-08-26T23:14:00.595Z,5.20
2022-08-26T23:16:47.735Z,5.55
2022-08-26T23:19:32.043Z,6.18
2022-08-26T23:22:16.991Z,5.07
2022-08-26T23:25:02.710Z,5.15
2022-08-26T23:27:53.103Z,4.55
2022-08-26T23:30:37.265Z,4.72
2022-08-26T23:33:21.427Z,5.65
2022-08-26T23:36:07.061Z,5.53
2022-08-26T23:38:53.327Z,6.63
2022-08-26T23:41:39.033Z,5.32
2022-08-26T23:44:23.065Z,6.38
2022-08-26T23:47:07.909Z,6.95
2022-08-26T23:49:51.943Z,6.03
2022-08-26T23:52:53.385Z,6.53
2022-08-26T23:55:38.706Z,4.93
2022-08-26T23:58:24.371Z,5.65
